createdAt,value
2023-04-27T00:01:17.398Z,38.62
2023-04-27T00:04:08.051Z,38.60
2023-04-27T00:06:56.856Z,38.38
2023-04-27T00:09:45.527Z,38.21
2023-04-27T00:12:35.615Z,38.29
2023-04-27T00:15:24.940Z,38.49
2023-04-27T00:18:13.593Z,38.60
2023-04-27T00:21:03.602Z,38.32
2023-04-27T00:23:52.120Z,38.64
2023-04-27T00:26:40.732Z,38.63
2023-04-27T00:29:29.312Z,38.28
2023-04-27T00:32:17.953Z,38.51
2023-04-27T00:35:07.138Z,38.24
2023-04-27T00:37:57.190Z,38.34
2023-04-27T00:40:45.831Z,38.52
2023-04-27T00:43:35.578Z,38.87
2023-04-27T00:46:24.397Z,38.33
2023-04-27T00:49:13.252Z,38.36
2023-04-27T00:52:02.060Z,38.98
2023-04-27T00:54:53.880Z,38.91
2023-04-27T00:57:42.766Z,38.84
2023-04-27T01:00:31.671Z,39.16
2023-04-27T01:03:20.590Z,39.32
2023-04-27T01:06:09.408Z,38.95
2023-04-27T01:08:58.063Z,38.90
2023-04-27T01:11:48.050Z,39.24
2023-04-27T01:14:38.200Z,39.27
2023-04-27T01:17:26.905Z,39.57
2023-04-27T01:20:15.787Z,39.41
2023-04-27T01:23:04.524Z,39.30
2023-04-27T01:25:54.508Z,39.00
2023-04-27T01:28:43.302Z,39.44
2023-04-27T01:31:32.156Z,39.12
2023-04-27T01:34:20.887Z,39.05
2023-04-27T01:37:09.616Z,39.41
2023-04-27T01:39:58.274Z,39.03
2023-04-27T01:42:48.270Z,38.95
2023-04-27T01:45:36.844Z,39.17
2023-04-27T01:48:25.506Z,38.89
2023-04-27T01:51:14.092Z,38.87
2023-04-27T01:54:02.824Z,38.93
2023-04-27T01:56:51.412Z,38.89
2023-04-27T01:59:41.498Z,38.75
2023-04-27T02:02:30.236Z,38.86
2023-04-27T02:05:19.212Z,38.83
2023-04-27T02:08:07.899Z,38.83
2023-04-27T02:10:56.630Z,38.71
2023-04-27T02:13:45.633Z,38.80
2023-04-27T02:16:35.843Z,39.03
2023-04-27T02:19:24.522Z,39.14
2023-04-27T02:22:13.091Z,38.96
2023-04-27T02:25:01.726Z,39.04
2023-04-27T02:27:50.456Z,38.90
2023-04-27T02:30:39.480Z,38.91
2023-04-27T02:33:29.520Z,39.04
2023-04-27T02:36:18.580Z,39.15
2023-04-27T02:39:07.194Z,39.12
2023-04-27T02:41:55.868Z,39.03
2023-04-27T02:44:44.573Z,39.07
2023-04-27T02:47:33.164Z,39.22
2023-04-27T02:50:23.409Z,39.20
2023-04-27T02:53:12.192Z,39.28
2023-04-27T02:56:00.856Z,39.36
2023-04-27T02:58:49.486Z,39.38
2023-04-27T03:01:38.180Z,39.16
2023-04-27T03:04:28.258Z,39.51
2023-04-27T03:07:18.452Z,39.68
2023-04-27T03:10:07.610Z,39.93
2023-04-27T03:12:56.261Z,39.83
2023-04-27T03:15:44.881Z,39.79
2023-04-27T03:18:33.499Z,40.02
2023-04-27T03:21:22.103Z,39.95
2023-04-27T03:24:12.159Z,39.28
2023-04-27T03:27:00.968Z,39.35
2023-04-27T03:29:53.550Z,39.13
2023-04-27T03:32:42.186Z,39.27
2023-04-27T03:35:30.981Z,39.27
2023-04-27T03:38:19.604Z,39.53
2023-04-27T03:41:09.642Z,39.39
2023-04-27T03:43:58.300Z,39.51
2023-04-27T03:46:46.906Z,39.20
2023-04-27T03:49:35.561Z,39.28
2023-04-27T03:52:24.204Z,39.36
2023-04-27T03:55:13.499Z,39.63
2023-04-27T03:58:03.448Z,39.88
2023-04-27T04:00:52.205Z,39.97
2023-04-27T04:03:40.950Z,39.83
2023-04-27T04:06:29.923Z,39.49
2023-04-27T04:09:18.589Z,39.93
2023-04-27T04:12:07.793Z,39.91
2023-04-27T04:14:58.129Z,39.80
2023-04-27T04:17:47.451Z,39.57
2023-04-27T04:20:36.953Z,39.84
2023-04-27T04:23:25.949Z,39.52
2023-04-27T04:26:14.938Z,39.70
2023-04-27T04:29:03.813Z,39.94
2023-04-27T04:31:53.922Z,39.91
2023-04-27T04:34:42.563Z,40.12
2023-04-27T04:37:31.440Z,40.24
2023-04-27T04:40:20.102Z,40.39
2023-04-27T04:43:08.755Z,40.09
2023-04-27T04:45:57.396Z,39.82
2023-04-27T04:48:47.550Z,39.71
2023-04-27T04:51:36.551Z,39.80
2023-04-27T04:54:25.338Z,39.80
2023-04-27T04:57:13.980Z,39.79
2023-04-27T05:00:04.295Z,39.85
2023-04-27T05:02:54.796Z,39.74
2023-04-27T05:05:54.352Z,39.90
2023-04-27T05:08:43.086Z,40.15
2023-04-27T05:11:32.499Z,40.10
2023-04-27T05:14:21.264Z,40.16
2023-04-27T05:17:13.389Z,40.10
2023-04-27T05:20:02.053Z,40.02
2023-04-27T05:22:52.163Z,39.94
2023-04-27T05:25:42.543Z,39.85
2023-04-27T05:28:31.286Z,40.23
2023-04-27T05:31:20.354Z,40.07
2023-04-27T05:34:10.028Z,39.79
2023-04-27T05:36:58.625Z,40.04
2023-04-27T05:39:48.658Z,39.72
2023-04-27T05:42:37.453Z,39.84
2023-04-27T05:45:26.035Z,40.08
2023-04-27T05:48:15.129Z,40.10
2023-04-27T05:51:04.797Z,40.36
2023-04-27T05:53:55.304Z,40.36
2023-04-27T05:56:45.432Z,40.15
2023-04-27T05:59:34.136Z,40.26
2023-04-27T06:02:22.987Z,40.06
2023-04-27T06:05:11.901Z,40.19
2023-04-27T06:08:00.485Z,40.24
2023-04-27T06:10:49.322Z,40.21
2023-04-27T06:13:39.313Z,40.09
2023-04-27T06:16:28.094Z,40.11
2023-04-27T06:19:17.098Z,40.17
2023-04-27T06:22:05.826Z,40.54
2023-04-27T06:24:54.440Z,40.30
2023-04-27T06:27:43.145Z,40.71
2023-04-27T06:30:33.296Z,40.52
2023-04-27T06:33:21.950Z,40.70
2023-04-27T06:36:10.853Z,40.58
2023-04-27T06:39:00.135Z,40.32
2023-04-27T06:41:48.737Z,40.17
2023-04-27T06:44:37.604Z,40.00
2023-04-27T06:47:27.710Z,39.93
2023-04-27T06:50:17.374Z,40.22
2023-04-27T06:53:06.078Z,40.09
2023-04-27T06:55:54.722Z,40.00
2023-04-27T06:58:43.442Z,40.09
2023-04-27T07:01:32.395Z,40.08
2023-04-27T07:04:22.902Z,40.04
2023-04-27T07:07:11.847Z,39.93
2023-04-27T07:10:01.975Z,39.85
2023-04-27T07:12:51.156Z,39.62
2023-04-27T07:15:39.761Z,39.73
2023-04-27T07:18:29.099Z,39.77
2023-04-27T07:21:19.210Z,39.47
2023-04-27T07:24:08.541Z,39.69
2023-04-27T07:26:58.092Z,39.67
2023-04-27T07:29:47.236Z,39.52
2023-04-27T07:32:35.870Z,39.66
2023-04-27T07:35:24.818Z,39.39
2023-04-27T07:38:14.807Z,39.61
2023-04-27T07:41:04.564Z,39.89
2023-04-27T07:43:53.658Z,39.37
2023-04-27T07:46:42.356Z,39.43
2023-04-27T07:49:31.198Z,39.50
2023-04-27T07:52:19.953Z,39.57
2023-04-27T07:55:11.080Z,39.54
2023-04-27T07:57:59.690Z,39.48
2023-04-27T08:00:48.681Z,39.64
2023-04-27T08:03:38.081Z,39.33
2023-04-27T08:06:28.846Z,39.58
2023-04-27T08:09:18.210Z,39.63
2023-04-27T08:12:08.624Z,39.45
2023-04-27T08:14:57.457Z,39.03
2023-04-27T08:17:47.282Z,39.45
2023-04-27T08:20:35.915Z,39.37
2023-04-27T08:23:29.118Z,39.55
2023-04-27T08:26:17.792Z,39.48
2023-04-27T08:29:15.816Z,39.55
2023-04-27T08:32:12.967Z,39.46
2023-04-27T08:35:01.660Z,39.38
2023-04-27T08:37:50.559Z,39.46
2023-04-27T08:40:44.386Z,39.24
2023-04-27T08:43:36.735Z,39.28
2023-04-27T08:46:28.084Z,39.25
2023-04-27T08:49:17.340Z,39.15
2023-04-27T08:52:06.418Z,39.23
2023-04-27T08:54:55.689Z,39.14
2023-04-27T08:57:44.246Z,39.15
2023-04-27T09:00:41.570Z,39.43
2023-04-27T09:03:32.387Z,39.18
2023-04-27T09:06:31.526Z,39.43
2023-04-27T09:09:24.437Z,39.42
2023-04-27T09:12:17.812Z,39.35
2023-04-27T09:15:08.519Z,39.24
2023-04-27T09:17:57.574Z,39.21
2023-04-27T09:20:48.654Z,39.19
2023-04-27T09:23:38.585Z,39.18
2023-04-27T09:26:31.434Z,39.17
2023-04-27T09:29:20.213Z,39.24
2023-04-27T09:32:20.638Z,39.36
2023-04-27T09:35:21.894Z,39.66
2023-04-27T09:38:11.945Z,39.84
2023-04-27T09:41:01.452Z,39.70
2023-04-27T09:43:50.601Z,39.53
2023-04-27T09:46:39.718Z,39.32
2023-04-27T09:49:29.257Z,39.35
2023-04-27T09:52:17.880Z,38.66
2023-04-27T09:55:11.951Z,38.78
2023-04-27T09:58:11.599Z,38.79
2023-04-27T10:01:10.777Z,38.61
2023-04-27T10:04:10.639Z,38.63
2023-04-27T10:07:01.850Z,38.88
2023-04-27T10:09:52.305Z,39.08
2023-04-27T10:12:42.592Z,39.49
2023-04-27T10:15:31.978Z,39.68
2023-04-27T10:18:32.443Z,39.97
2023-04-27T10:21:21.387Z,39.92
2023-04-27T10:24:10.802Z,40.11
2023-04-27T10:27:05.656Z,40.13
2023-04-27T10:29:55.794Z,40.20
2023-04-27T10:32:53.164Z,40.18
2023-04-27T10:35:44.215Z,40.14
2023-04-27T10:38:33.124Z,40.11
2023-04-27T10:41:23.487Z,40.18
2023-04-27T10:44:18.821Z,40.11
2023-04-27T10:47:20.139Z,40.40
2023-04-27T10:50:11.421Z,40.36
2023-04-27T10:53:03.570Z,40.39
2023-04-27T10:55:57.455Z,40.40
2023-04-27T10:58:49.366Z,40.16
2023-04-27T11:01:38.872Z,40.12
2023-04-27T11:04:42.490Z,39.99
2023-04-27T11:07:31.271Z,40.18
2023-04-27T11:10:21.207Z,40.39
2023-04-27T11:13:11.827Z,40.23
2023-04-27T11:16:01.705Z,39.89
2023-04-27T11:18:50.469Z,40.37
2023-04-27T11:21:43.563Z,40.33
2023-04-27T11:24:32.350Z,40.39
2023-04-27T11:27:22.308Z,40.14
2023-04-27T11:30:22.339Z,39.99
2023-04-27T11:33:11.352Z,39.87
2023-04-27T11:36:01.049Z,39.94
2023-04-27T11:38:51.494Z,39.90
2023-04-27T11:41:45.749Z,39.74
2023-04-27T11:44:35.278Z,39.83
2023-04-27T11:47:27.982Z,39.81
2023-04-27T11:50:16.808Z,39.79
2023-04-27T11:53:05.644Z,39.89
2023-04-27T11:55:55.840Z,39.70
2023-04-27T11:58:46.435Z,39.85
2023-04-27T12:01:38.351Z,39.73
2023-04-27T12:04:27.569Z,39.71
2023-04-27T12:07:16.453Z,39.98
2023-04-27T12:10:05.704Z,40.13
2023-04-27T12:12:55.979Z,40.42
2023-04-27T12:15:45.194Z,40.28
2023-04-27T12:18:34.068Z,40.22
2023-04-27T12:21:22.753Z,40.31
2023-04-27T12:24:11.894Z,40.45
2023-04-27T12:27:01.426Z,40.26
2023-04-27T12:29:52.436Z,40.51
2023-04-27T12:32:41.145Z,40.44
2023-04-27T12:35:32.045Z,40.08
2023-04-27T12:38:20.953Z,40.25
2023-04-27T12:41:09.570Z,40.02
2023-04-27T12:43:58.481Z,40.10
2023-04-27T12:46:49.184Z,40.14
2023-04-27T12:49:38.026Z,39.89
2023-04-27T12:52:26.848Z,40.19
2023-04-27T12:55:25.125Z,40.01
2023-04-27T12:58:20.789Z,39.86
2023-04-27T13:01:14.877Z,40.00
2023-04-27T13:04:07.053Z,40.17
2023-04-27T13:06:55.861Z,39.82
2023-04-27T13:09:44.578Z,39.88
2023-04-27T13:12:33.573Z,39.90
2023-04-27T13:15:22.738Z,39.71
2023-04-27T13:18:11.507Z,39.46
2023-04-27T13:21:01.506Z,36.41
2023-04-27T13:23:51.224Z,31.53
2023-04-27T13:26:39.858Z,27.21
2023-04-27T13:29:28.510Z,27.24
2023-04-27T13:32:17.156Z,26.07
2023-04-27T13:35:07.726Z,25.80
2023-04-27T13:37:57.838Z,25.09
2023-04-27T13:40:46.606Z,25.04
2023-04-27T13:43:35.680Z,25.14
2023-04-27T13:46:24.421Z,25.10
2023-04-27T13:49:13.098Z,25.20
2023-04-27T13:52:01.905Z,25.44
2023-04-27T13:54:51.913Z,25.29
2023-04-27T13:57:40.720Z,24.93
2023-04-27T14:00:33.251Z,24.88
2023-04-27T14:03:22.810Z,24.56
2023-04-27T14:06:11.721Z,25.06
2023-04-27T14:09:00.448Z,25.00
2023-04-27T14:11:56.172Z,25.52
2023-04-27T14:14:45.376Z,25.31
2023-04-27T14:17:34.023Z,24.68
2023-04-27T14:20:22.838Z,24.77
2023-04-27T14:23:12.826Z,24.50
2023-04-27T14:26:01.478Z,24.34
2023-04-27T14:28:57.427Z,24.71
2023-04-27T14:31:47.957Z,24.11
2023-04-27T14:34:36.812Z,24.80
2023-04-27T14:37:25.586Z,26.07
2023-04-27T14:40:14.963Z,26.99
2023-04-27T14:43:03.731Z,27.54
2023-04-27T14:45:59.499Z,28.23
2023-04-27T14:48:51.431Z,28.40
2023-04-27T14:51:42.004Z,28.13
2023-04-27T14:54:32.347Z,28.33
2023-04-27T14:57:21.175Z,28.28
2023-04-27T15:00:11.138Z,28.31
2023-04-27T15:03:01.421Z,25.36
2023-04-27T15:05:50.321Z,24.85
2023-04-27T15:08:38.937Z,23.96
2023-04-27T15:11:27.581Z,23.87
2023-04-27T15:14:16.595Z,23.59
2023-04-27T15:17:05.309Z,23.77
2023-04-27T15:19:56.295Z,23.81
2023-04-27T15:22:45.020Z,23.93
2023-04-27T15:25:33.594Z,23.71
2023-04-27T15:28:22.369Z,23.91
2023-04-27T15:31:11.132Z,23.97
2023-04-27T15:33:59.984Z,24.47
2023-04-27T15:36:49.957Z,25.24
2023-04-27T15:39:38.629Z,25.81
2023-04-27T15:42:27.557Z,26.76
2023-04-27T15:45:16.532Z,26.91
2023-04-27T15:48:05.609Z,27.20
2023-04-27T15:50:54.567Z,27.49
2023-04-27T15:53:44.683Z,27.63
2023-04-27T15:56:33.414Z,27.82
2023-04-27T15:59:22.199Z,28.25
2023-04-27T16:02:11.137Z,28.15
2023-04-27T16:04:59.820Z,27.68
2023-04-27T16:07:48.489Z,27.94
2023-04-27T16:10:38.541Z,28.12
2023-04-27T16:13:28.462Z,28.30
2023-04-27T16:16:17.381Z,28.40
2023-04-27T16:19:07.490Z,28.62
2023-04-27T16:21:56.305Z,28.60
2023-04-27T16:24:44.953Z,28.44
2023-04-27T16:27:34.955Z,28.48
2023-04-27T16:30:24.433Z,28.79
2023-04-27T16:33:13.102Z,28.57
2023-04-27T16:36:01.747Z,28.70
2023-04-27T16:38:50.521Z,28.74
2023-04-27T16:41:39.154Z,28.86
2023-04-27T16:44:29.222Z,28.92
2023-04-27T16:47:18.105Z,29.02
2023-04-27T16:50:07.519Z,28.92
2023-04-27T16:52:56.517Z,29.04
2023-04-27T16:55:45.128Z,29.42
2023-04-27T16:58:36.030Z,29.11
2023-04-27T17:01:27.156Z,29.49
2023-04-27T17:04:15.914Z,29.12
2023-04-27T17:07:04.575Z,29.51
2023-04-27T17:09:53.206Z,29.56
2023-04-27T17:12:41.799Z,29.39
2023-04-27T17:15:30.477Z,30.03
2023-04-27T17:18:21.022Z,29.44
2023-04-27T17:21:09.821Z,29.77
2023-04-27T17:23:58.542Z,29.69
2023-04-27T17:26:48.249Z,29.83
2023-04-27T17:29:37.312Z,29.61
2023-04-27T17:32:26.288Z,29.51
2023-04-27T17:35:16.377Z,29.35
2023-04-27T17:38:04.990Z,29.42
2023-04-27T17:40:54.050Z,29.43
2023-04-27T17:43:42.928Z,29.27
2023-04-27T17:46:31.763Z,29.28
2023-04-27T17:49:20.678Z,29.75
2023-04-27T17:52:10.868Z,29.64
2023-04-27T17:54:59.466Z,29.64
2023-04-27T17:57:48.246Z,29.60
2023-04-27T18:00:37.014Z,29.77
2023-04-27T18:03:26.886Z,29.51
2023-04-27T18:06:16.009Z,29.63
2023-04-27T18:09:06.355Z,29.52
2023-04-27T18:11:55.046Z,30.43
2023-04-27T18:14:43.702Z,30.14
2023-04-27T18:17:32.540Z,30.13
2023-04-27T18:20:23.394Z,30.06
2023-04-27T18:23:12.246Z,30.03
2023-04-27T18:26:02.307Z,30.41
2023-04-27T18:28:50.933Z,30.42
2023-04-27T18:31:39.590Z,30.35
2023-04-27T18:34:28.206Z,30.05
2023-04-27T18:37:16.990Z,30.25
2023-04-27T18:40:06.871Z,30.50
2023-04-27T18:42:56.805Z,30.33
2023-04-27T18:45:45.476Z,30.32
2023-04-27T18:48:34.136Z,30.01
2023-04-27T18:51:26.138Z,30.40
2023-04-27T18:54:14.873Z,29.96
2023-04-27T18:57:04.241Z,30.11
2023-04-27T18:59:54.241Z,30.07
2023-04-27T19:02:42.951Z,30.06
2023-04-27T19:05:32.437Z,30.03
2023-04-27T19:08:21.263Z,30.45
2023-04-27T19:11:09.889Z,30.34
2023-04-27T19:13:58.503Z,30.43
2023-04-27T19:16:48.486Z,30.32
2023-04-27T19:19:37.206Z,30.12
2023-04-27T19:22:27.301Z,30.43
2023-04-27T19:25:19.906Z,30.53
2023-04-27T19:28:09.410Z,30.16
2023-04-27T19:30:58.103Z,30.01
2023-04-27T19:36:43.245Z,30.05
2023-04-27T19:39:34.198Z,30.25
2023-04-27T19:42:24.829Z,30.03
2023-04-27T19:45:13.747Z,30.23
2023-04-27T19:48:02.398Z,30.15
2023-04-27T19:50:52.736Z,30.70
2023-04-27T19:53:41.337Z,30.91
2023-04-27T19:56:29.967Z,30.78
2023-04-27T19:59:18.599Z,30.21
2023-04-27T20:02:07.464Z,30.26
2023-04-27T20:04:56.662Z,29.96
2023-04-27T20:07:47.023Z,30.30
2023-04-27T20:10:35.692Z,30.40
2023-04-27T20:13:24.226Z,30.79
2023-04-27T20:16:13.083Z,30.58
2023-04-27T20:19:01.758Z,30.75
2023-04-27T20:21:50.385Z,30.82
2023-04-27T20:24:40.365Z,30.55
2023-04-27T20:27:29.036Z,30.57
2023-04-27T20:30:17.686Z,30.58
2023-04-27T20:33:07.024Z,30.46
2023-04-27T20:36:01.150Z,31.58
2023-04-27T20:38:55.319Z,31.24
2023-04-27T20:41:45.379Z,30.67
2023-04-27T20:44:34.055Z,31.16
2023-04-27T20:47:22.848Z,30.83
2023-04-27T20:50:11.748Z,30.80
2023-04-27T20:53:00.547Z,30.73
2023-04-27T20:55:49.118Z,30.84
2023-04-27T20:58:39.081Z,31.06
2023-04-27T21:01:27.924Z,30.68
2023-04-27T21:04:16.864Z,31.13
2023-04-27T21:07:05.934Z,30.72
2023-04-27T21:09:54.534Z,30.96
2023-04-27T21:12:43.109Z,30.90
2023-04-27T21:15:33.452Z,30.58
2023-04-27T21:18:29.592Z,30.82
2023-04-27T21:21:18.691Z,31.00
2023-04-27T21:24:08.407Z,31.03
2023-04-27T21:26:57.812Z,30.69
2023-04-27T21:29:46.537Z,30.64
2023-04-27T21:32:39.696Z,30.99
2023-04-27T21:35:29.379Z,30.70
2023-04-27T21:38:18.076Z,30.51
2023-04-27T21:41:06.830Z,30.77
2023-04-27T21:43:55.512Z,30.51
2023-04-27T21:46:44.370Z,31.02
2023-04-27T21:49:34.576Z,30.98
2023-04-27T21:52:24.395Z,31.15
2023-04-27T21:55:13.346Z,30.93
2023-04-27T21:58:02.125Z,30.69
2023-04-27T22:00:51.116Z,30.63
2023-04-27T22:03:39.873Z,31.04
2023-04-27T22:06:30.704Z,31.26
2023-04-27T22:09:19.419Z,31.04
2023-04-27T22:12:08.478Z,30.59
2023-04-27T22:14:57.120Z,31.01
2023-04-27T22:17:45.786Z,30.83
2023-04-27T22:20:34.493Z,30.94
2023-04-27T22:23:24.497Z,30.93
2023-04-27T22:26:13.363Z,31.17
2023-04-27T22:29:01.918Z,31.21
2023-04-27T22:31:52.024Z,31.28
2023-04-27T22:34:40.734Z,30.88
2023-04-27T22:37:29.857Z,31.41
2023-04-27T22:40:20.402Z,30.78
2023-04-27T22:43:08.989Z,30.72
2023-04-27T22:45:57.697Z,31.35
2023-04-27T22:48:46.316Z,31.09
2023-04-27T22:51:36.600Z,30.96
2023-04-27T22:54:25.287Z,31.14
2023-04-27T22:57:15.326Z,31.27
2023-04-27T23:00:05.434Z,31.52
2023-04-27T23:02:54.175Z,31.45
2023-04-27T23:05:43.282Z,31.15
2023-04-27T23:08:31.932Z,31.31
2023-04-27T23:11:20.777Z,31.41
2023-04-27T23:14:11.647Z,31.50
2023-04-27T23:17:01.812Z,31.51
2023-04-27T23:19:50.559Z,31.27
2023-04-27T23:22:42.971Z,31.07
2023-04-27T23:25:33.571Z,31.24
2023-04-27T23:28:22.481Z,30.88
2023-04-27T23:31:12.646Z,31.13
2023-04-27T23:34:01.332Z,31.35
2023-04-27T23:36:49.857Z,31.10
2023-04-27T23:39:38.444Z,31.00
2023-04-27T23:42:27.593Z,31.47
2023-04-27T23:45:16.252Z,31.23
2023-04-27T23:48:06.890Z,31.45
2023-04-27T23:51:00.878Z,31.28
2023-04-27T23:53:49.481Z,31.16
2023-04-27T23:56:38.164Z,31.21
2023-04-27T23:59:26.776Z,31.18
